Terminal Aerodrome Forecast
Issued by NWS Des Moines, IA

Home | Current Version | Previous Version | Text Only | Print | Product List | Glossary On
Versions: 1 2 3 4 5 6 7 8 9 10 11 12 13 14 15 16 17 18 19 20 21 22
000
FTUS43 KDMX 150520
TAFDSM
TAF
KDSM 150520Z 1506/1606 24007KT P6SM BKN035
      TEMPO 1508/1510 BKN025
     FM151500 26011KT P6SM FEW050 BKN140
     FM151900 25010G19KT P6SM BKN200
     FM152100 25010G19KT P6SM SCT240
     FM152300 23007KT P6SM SCT150=

USA.gov is the U.S. government's official web portal to all federal, state and local government web resources and services.